sensor_id;sensor_type;location;lat;lon;timestamp;pressure;altitude;pressure_sealevel;temperature
20103;BMP180;10210;52.284;9.892;2022-08-19T00:00:38;100284.00;;;27.00
20103;BMP180;10210;52.284;9.892;2022-08-19T00:03:06;100288.00;;;27.00
20103;BMP180;10210;52.284;9.892;2022-08-19T00:05:33;100280.00;;;27.00
20103;BMP180;10210;52.284;9.892;2022-08-19T00:07:59;100269.00;;;26.90
20103;BMP180;10210;52.284;9.892;2022-08-19T00:10:25;100264.00;;;26.90
20103;BMP180;10210;52.284;9.892;2022-08-19T00:12:51;100255.00;;;26.90
20103;BMP180;10210;52.284;9.892;2022-08-19T00:15:20;100252.00;;;26.80
20103;BMP180;10210;52.284;9.892;2022-08-19T00:17:46;100245.00;;;26.80
20103;BMP180;10210;52.284;9.892;2022-08-19T00:20:18;100246.00;;;26.70
20103;BMP180;10210;52.284;9.892;2022-08-19T00:22:46;100246.00;;;26.70
20103;BMP180;10210;52.284;9.892;2022-08-19T00:25:13;100245.00;;;26.60
20103;BMP180;10210;52.284;9.892;2022-08-19T00:27:39;100241.00;;;26.60
20103;BMP180;10210;52.284;9.892;2022-08-19T00:30:07;100250.00;;;26.50
20103;BMP180;10210;52.284;9.892;2022-08-19T00:32:35;100247.00;;;26.40
20103;BMP180;10210;52.284;9.892;2022-08-19T00:35:02;100252.00;;;26.40
20103;BMP180;10210;52.284;9.892;2022-08-19T00:37:28;100260.00;;;26.40
20103;BMP180;10210;52.284;9.892;2022-08-19T00:39:54;100248.00;;;26.40
20103;BMP180;10210;52.284;9.892;2022-08-19T00:42:22;100241.00;;;26.40
20103;BMP180;10210;52.284;9.892;2022-08-19T00:44:48;100233.00;;;26.30
20103;BMP180;10210;52.284;9.892;2022-08-19T00:47:16;100235.00;;;26.30
20103;BMP180;10210;52.284;9.892;2022-08-19T00:49:50;100223.00;;;26.20
20103;BMP180;10210;52.284;9.892;2022-08-19T00:52:26;100224.00;;;26.20
20103;BMP180;10210;52.284;9.892;2022-08-19T00:54:56;100225.00;;;26.20
20103;BMP180;10210;52.284;9.892;2022-08-19T00:57:32;100233.00;;;26.20
20103;BMP180;10210;52.284;9.892;2022-08-19T01:00:01;100232.00;;;26.20
20103;BMP180;10210;52.284;9.892;2022-08-19T01:02:30;100237.00;;;26.20
20103;BMP180;10210;52.284;9.892;2022-08-19T01:04:56;100227.00;;;26.20
20103;BMP180;10210;52.284;9.892;2022-08-19T01:07:22;100235.00;;;26.20
20103;BMP180;10210;52.284;9.892;2022-08-19T01:09:49;100237.00;;;26.30
20103;BMP180;10210;52.284;9.892;2022-08-19T01:12:16;100246.00;;;26.30
20103;BMP180;10210;52.284;9.892;2022-08-19T01:14:45;100249.00;;;26.30
20103;BMP180;10210;52.284;9.892;2022-08-19T01:17:11;100244.00;;;26.30
20103;BMP180;10210;52.284;9.892;2022-08-19T01:19:41;100245.00;;;26.30
20103;BMP180;10210;52.284;9.892;2022-08-19T01:22:30;100248.00;;;26.30
20103;BMP180;10210;52.284;9.892;2022-08-19T01:24:57;100224.00;;;26.30
20103;BMP180;10210;52.284;9.892;2022-08-19T01:27:24;100219.00;;;26.30
20103;BMP180;10210;52.284;9.892;2022-08-19T01:29:50;100226.00;;;26.30
20103;BMP180;10210;52.284;9.892;2022-08-19T01:32:17;100212.00;;;26.30
20103;BMP180;10210;52.284;9.892;2022-08-19T01:34:44;100224.00;;;26.20
20103;BMP180;10210;52.284;9.892;2022-08-19T01:37:13;100220.00;;;26.20
20103;BMP180;10210;52.284;9.892;2022-08-19T01:39:40;100212.00;;;26.20
20103;BMP180;10210;52.284;9.892;2022-08-19T01:42:08;100214.00;;;26.10
20103;BMP180;10210;52.284;9.892;2022-08-19T01:44:38;100206.00;;;26.10
20103;BMP180;10210;52.284;9.892;2022-08-19T01:47:04;100198.00;;;26.00
20103;BMP180;10210;52.284;9.892;2022-08-19T01:49:30;100194.00;;;26.00
20103;BMP180;10210;52.284;9.892;2022-08-19T01:51:56;100199.00;;;26.00
20103;BMP180;10210;52.284;9.892;2022-08-19T01:54:24;100199.00;;;25.90
20103;BMP180;10210;52.284;9.892;2022-08-19T01:57:14;100193.00;;;25.80
20103;BMP180;10210;52.284;9.892;2022-08-19T01:59:42;100188.00;;;25.80
20103;BMP180;10210;52.284;9.892;2022-08-19T02:02:08;100196.00;;;25.80
20103;BMP180;10210;52.284;9.892;2022-08-19T02:04:36;100193.00;;;25.80
20103;BMP180;10210;52.284;9.892;2022-08-19T02:07:03;100193.00;;;25.70
20103;BMP180;10210;52.284;9.892;2022-08-19T02:09:31;100199.00;;;25.70
20103;BMP180;10210;52.284;9.892;2022-08-19T02:11:57;100199.00;;;25.70
20103;BMP180;10210;52.284;9.892;2022-08-19T02:14:25;100196.00;;;25.60
20103;BMP180;10210;52.284;9.892;2022-08-19T02:16:51;100192.00;;;25.60
20103;BMP180;10210;52.284;9.892;2022-08-19T02:19:17;100189.00;;;25.60
20103;BMP180;10210;52.284;9.892;2022-08-19T02:21:42;100191.00;;;25.60
20103;BMP180;10210;52.284;9.892;2022-08-19T02:24:09;100184.00;;;25.60
20103;BMP180;10210;52.284;9.892;2022-08-19T02:26:35;100191.00;;;25.60
20103;BMP180;10210;52.284;9.892;2022-08-19T02:29:01;100196.00;;;25.60
20103;BMP180;10210;52.284;9.892;2022-08-19T02:31:27;100191.00;;;25.60
20103;BMP180;10210;52.284;9.892;2022-08-19T02:33:54;100192.00;;;25.60
20103;BMP180;10210;52.284;9.892;2022-08-19T02:36:21;100195.00;;;25.60
20103;BMP180;10210;52.284;9.892;2022-08-19T02:38:47;100198.00;;;25.70
20103;BMP180;10210;52.284;9.892;2022-08-19T02:41:26;100198.00;;;25.70
20103;BMP180;10210;52.284;9.892;2022-08-19T02:43:53;100196.00;;;25.70
20103;BMP180;10210;52.284;9.892;2022-08-19T02:46:26;100189.00;;;25.70
20103;BMP180;10210;52.284;9.892;2022-08-19T02:48:55;100198.00;;;25.80
20103;BMP180;10210;52.284;9.892;2022-08-19T02:51:33;100204.00;;;25.80
20103;BMP180;10210;52.284;9.892;2022-08-19T02:53:59;100212.00;;;25.80
20103;BMP180;10210;52.284;9.892;2022-08-19T02:56:25;100211.00;;;25.80
20103;BMP180;10210;52.284;9.892;2022-08-19T02:58:54;100204.00;;;25.80
20103;BMP180;10210;52.284;9.892;2022-08-19T03:01:28;100209.00;;;25.80
20103;BMP180;10210;52.284;9.892;2022-08-19T03:03:56;100214.00;;;25.80
20103;BMP180;10210;52.284;9.892;2022-08-19T03:06:23;100207.00;;;25.80
20103;BMP180;10210;52.284;9.892;2022-08-19T03:08:49;100210.00;;;25.80
20103;BMP180;10210;52.284;9.892;2022-08-19T03:11:17;100211.00;;;26.40
20103;BMP180;10210;52.284;9.892;2022-08-19T03:13:43;100214.00;;;26.00
20103;BMP180;10210;52.284;9.892;2022-08-19T03:16:11;100210.00;;;25.90
20103;BMP180;10210;52.284;9.892;2022-08-19T03:18:37;100229.00;;;25.90
20103;BMP180;10210;52.284;9.892;2022-08-19T03:21:03;100225.00;;;25.90
20103;BMP180;10210;52.284;9.892;2022-08-19T03:23:28;100224.00;;;25.80
20103;BMP180;10210;52.284;9.892;2022-08-19T03:25:54;100223.00;;;25.80
20103;BMP180;10210;52.284;9.892;2022-08-19T03:28:23;100216.00;;;25.80
20103;BMP180;10210;52.284;9.892;2022-08-19T03:31:02;100209.00;;;25.80
20103;BMP180;10210;52.284;9.892;2022-08-19T03:33:30;100209.00;;;25.80
20103;BMP180;10210;52.284;9.892;2022-08-19T03:36:12;100213.00;;;25.70
20103;BMP180;10210;52.284;9.892;2022-08-19T03:38:45;100224.00;;;25.70
20103;BMP180;10210;52.284;9.892;2022-08-19T03:41:26;100216.00;;;25.70
20103;BMP180;10210;52.284;9.892;2022-08-19T03:43:53;100221.00;;;25.70
20103;BMP180;10210;52.284;9.892;2022-08-19T03:46:24;100219.00;;;25.70
20103;BMP180;10210;52.284;9.892;2022-08-19T03:48:57;100212.00;;;25.70
20103;BMP180;10210;52.284;9.892;2022-08-19T03:51:34;100214.00;;;25.60
20103;BMP180;10210;52.284;9.892;2022-08-19T03:54:05;100219.00;;;25.60
20103;BMP180;10210;52.284;9.892;2022-08-19T03:56:31;100213.00;;;25.60
20103;BMP180;10210;52.284;9.892;2022-08-19T03:58:59;100217.00;;;25.50
20103;BMP180;10210;52.284;9.892;2022-08-19T04:01:28;100216.00;;;25.50
20103;BMP180;10210;52.284;9.892;2022-08-19T04:03:56;100204.00;;;25.50
20103;BMP180;10210;52.284;9.892;2022-08-19T04:06:30;100204.00;;;25.40
20103;BMP180;10210;52.284;9.892;2022-08-19T04:08:58;100208.00;;;25.40
20103;BMP180;10210;52.284;9.892;2022-08-19T04:11:29;100211.00;;;25.30
20103;BMP180;10210;52.284;9.892;2022-08-19T04:13:56;100218.00;;;25.30
20103;BMP180;10210;52.284;9.892;2022-08-19T04:16:25;100216.00;;;25.30
20103;BMP180;10210;52.284;9.892;2022-08-19T04:18:55;100218.00;;;25.20
20103;BMP180;10210;52.284;9.892;2022-08-19T04:21:25;100212.00;;;25.20
20103;BMP180;10210;52.284;9.892;2022-08-19T04:23:52;100208.00;;;25.20
20103;BMP180;10210;52.284;9.892;2022-08-19T04:26:29;100204.00;;;25.10
20103;BMP180;10210;52.284;9.892;2022-08-19T04:29:11;100204.00;;;25.10
20103;BMP180;10210;52.284;9.892;2022-08-19T04:31:37;100202.00;;;25.00
20103;BMP180;10210;52.284;9.892;2022-08-19T04:34:08;100220.00;;;25.00
20103;BMP180;10210;52.284;9.892;2022-08-19T04:36:40;100217.00;;;25.00
20103;BMP180;10210;52.284;9.892;2022-08-19T04:39:16;100225.00;;;25.00
20103;BMP180;10210;52.284;9.892;2022-08-19T04:41:42;100227.00;;;25.00
20103;BMP180;10210;52.284;9.892;2022-08-19T04:44:27;100234.00;;;25.00
20103;BMP180;10210;52.284;9.892;2022-08-19T04:46:57;100236.00;;;25.00
20103;BMP180;10210;52.284;9.892;2022-08-19T04:49:24;100241.00;;;25.00
20103;BMP180;10210;52.284;9.892;2022-08-19T04:51:54;100243.00;;;25.00
20103;BMP180;10210;52.284;9.892;2022-08-19T04:54:22;100237.00;;;25.10
20103;BMP180;10210;52.284;9.892;2022-08-19T04:56:51;100237.00;;;25.10
20103;BMP180;10210;52.284;9.892;2022-08-19T04:59:19;100236.00;;;25.10
20103;BMP180;10210;52.284;9.892;2022-08-19T05:01:46;100233.00;;;25.10
20103;BMP180;10210;52.284;9.892;2022-08-19T05:04:19;100242.00;;;25.10
20103;BMP180;10210;52.284;9.892;2022-08-19T05:06:46;100238.00;;;25.10
20103;BMP180;10210;52.284;9.892;2022-08-19T05:09:14;100239.00;;;25.10
20103;BMP180;10210;52.284;9.892;2022-08-19T05:11:42;100238.00;;;25.00
20103;BMP180;10210;52.284;9.892;2022-08-19T05:14:11;100216.00;;;25.00
20103;BMP180;10210;52.284;9.892;2022-08-19T05:16:41;100224.00;;;25.00
20103;BMP180;10210;52.284;9.892;2022-08-19T05:19:06;100219.00;;;24.90
20103;BMP180;10210;52.284;9.892;2022-08-19T05:21:53;100216.00;;;24.90
20103;BMP180;10210;52.284;9.892;2022-08-19T05:24:38;100221.00;;;24.80
20103;BMP180;10210;52.284;9.892;2022-08-19T05:27:04;100221.00;;;24.80
20103;BMP180;10210;52.284;9.892;2022-08-19T05:29:32;100223.00;;;24.80
20103;BMP180;10210;52.284;9.892;2022-08-19T05:32:00;100220.00;;;24.80
20103;BMP180;10210;52.284;9.892;2022-08-19T05:34:27;100223.00;;;24.80
20103;BMP180;10210;52.284;9.892;2022-08-19T05:36:59;100222.00;;;24.80
20103;BMP180;10210;52.284;9.892;2022-08-19T05:39:29;100218.00;;;24.70
20103;BMP180;10210;52.284;9.892;2022-08-19T05:42:00;100223.00;;;24.70
20103;BMP180;10210;52.284;9.892;2022-08-19T05:44:29;100222.00;;;24.70
20103;BMP180;10210;52.284;9.892;2022-08-19T05:47:02;100230.00;;;24.70
20103;BMP180;10210;52.284;9.892;2022-08-19T05:49:32;100226.00;;;24.70
20103;BMP180;10210;52.284;9.892;2022-08-19T05:51:58;100222.00;;;24.70
20103;BMP180;10210;52.284;9.892;2022-08-19T05:54:26;100228.00;;;24.70
20103;BMP180;10210;52.284;9.892;2022-08-19T05:56:53;100238.00;;;24.70
20103;BMP180;10210;52.284;9.892;2022-08-19T05:59:20;100236.00;;;24.70
20103;BMP180;10210;52.284;9.892;2022-08-19T06:01:49;100229.00;;;24.70
20103;BMP180;10210;52.284;9.892;2022-08-19T06:04:21;100230.00;;;24.70
20103;BMP180;10210;52.284;9.892;2022-08-19T06:06:51;100240.00;;;24.70
20103;BMP180;10210;52.284;9.892;2022-08-19T06:09:18;100248.00;;;24.80
20103;BMP180;10210;52.284;9.892;2022-08-19T06:11:51;100253.00;;;24.70
20103;BMP180;10210;52.284;9.892;2022-08-19T06:14:24;100250.00;;;24.80
20103;BMP180;10210;52.284;9.892;2022-08-19T06:16:51;100241.00;;;24.80
20103;BMP180;10210;52.284;9.892;2022-08-19T06:19:20;100244.00;;;24.80
20103;BMP180;10210;52.284;9.892;2022-08-19T06:21:49;100249.00;;;24.70
20103;BMP180;10210;52.284;9.892;2022-08-19T06:24:21;100242.00;;;24.70
20103;BMP180;10210;52.284;9.892;2022-08-19T06:26:53;100252.00;;;24.70
20103;BMP180;10210;52.284;9.892;2022-08-19T06:29:25;100256.00;;;24.70
20103;BMP180;10210;52.284;9.892;2022-08-19T06:31:54;100257.00;;;24.80
20103;BMP180;10210;52.284;9.892;2022-08-19T06:34:21;100263.00;;;24.70
20103;BMP180;10210;52.284;9.892;2022-08-19T06:36:51;100266.00;;;24.70
20103;BMP180;10210;52.284;9.892;2022-08-19T06:39:22;100271.00;;;24.70
20103;BMP180;10210;52.284;9.892;2022-08-19T06:41:51;100274.00;;;24.70
20103;BMP180;10210;52.284;9.892;2022-08-19T06:44:21;100278.00;;;24.70
20103;BMP180;10210;52.284;9.892;2022-08-19T06:46:48;100274.00;;;24.70
20103;BMP180;10210;52.284;9.892;2022-08-19T06:49:16;100281.00;;;24.70
20103;BMP180;10210;52.284;9.892;2022-08-19T06:51:46;100285.00;;;24.70
20103;BMP180;10210;52.284;9.892;2022-08-19T06:54:18;100275.00;;;24.70
20103;BMP180;10210;52.284;9.892;2022-08-19T06:56:44;100277.00;;;24.70
20103;BMP180;10210;52.284;9.892;2022-08-19T06:59:18;100277.00;;;24.70
20103;BMP180;10210;52.284;9.892;2022-08-19T07:01:48;100285.00;;;24.70
20103;BMP180;10210;52.284;9.892;2022-08-19T07:04:21;100293.00;;;24.80
20103;BMP180;10210;52.284;9.892;2022-08-19T07:06:50;100292.00;;;24.80
20103;BMP180;10210;52.284;9.892;2022-08-19T07:09:22;100301.00;;;24.80
20103;BMP180;10210;52.284;9.892;2022-08-19T07:11:53;100293.00;;;24.80
20103;BMP180;10210;52.284;9.892;2022-08-19T07:14:23;100291.00;;;24.80
20103;BMP180;10210;52.284;9.892;2022-08-19T07:16:52;100307.00;;;24.80
20103;BMP180;10210;52.284;9.892;2022-08-19T07:19:21;100310.00;;;24.80
20103;BMP180;10210;52.284;9.892;2022-08-19T07:21:50;100314.00;;;24.80
20103;BMP180;10210;52.284;9.892;2022-08-19T07:24:22;100319.00;;;24.90
20103;BMP180;10210;52.284;9.892;2022-08-19T07:26:52;100319.00;;;24.90
20103;BMP180;10210;52.284;9.892;2022-08-19T07:29:20;100318.00;;;25.00
20103;BMP180;10210;52.284;9.892;2022-08-19T07:31:52;100335.00;;;25.10
20103;BMP180;10210;52.284;9.892;2022-08-19T07:34:23;100337.00;;;25.20
20103;BMP180;10210;52.284;9.892;2022-08-19T07:36:49;100338.00;;;25.20
20103;BMP180;10210;52.284;9.892;2022-08-19T07:39:25;100347.00;;;25.20
20103;BMP180;10210;52.284;9.892;2022-08-19T07:41:51;100356.00;;;25.20
20103;BMP180;10210;52.284;9.892;2022-08-19T07:44:19;100361.00;;;25.20
20103;BMP180;10210;52.284;9.892;2022-08-19T07:46:49;100359.00;;;25.30
20103;BMP180;10210;52.284;9.892;2022-08-19T07:49:16;100369.00;;;25.20
20103;BMP180;10210;52.284;9.892;2022-08-19T07:51:59;100366.00;;;25.20
20103;BMP180;10210;52.284;9.892;2022-08-19T07:54:30;100369.00;;;25.20
20103;BMP180;10210;52.284;9.892;2022-08-19T07:56:57;100367.00;;;25.20
20103;BMP180;10210;52.284;9.892;2022-08-19T07:59:26;100370.00;;;25.30
20103;BMP180;10210;52.284;9.892;2022-08-19T08:01:54;100372.00;;;25.30
20103;BMP180;10210;52.284;9.892;2022-08-19T08:04:20;100377.00;;;25.30
20103;BMP180;10210;52.284;9.892;2022-08-19T08:07:07;100370.00;;;25.30
20103;BMP180;10210;52.284;9.892;2022-08-19T08:09:52;100372.00;;;25.30
20103;BMP180;10210;52.284;9.892;2022-08-19T08:12:26;100374.00;;;25.40
20103;BMP180;10210;52.284;9.892;2022-08-19T08:14:57;100369.00;;;25.50
20103;BMP180;10210;52.284;9.892;2022-08-19T08:17:27;100376.00;;;25.50
20103;BMP180;10210;52.284;9.892;2022-08-19T08:19:53;100373.00;;;25.60
20103;BMP180;10210;52.284;9.892;2022-08-19T08:22:22;100379.00;;;25.80
20103;BMP180;10210;52.284;9.892;2022-08-19T08:25:19;100374.00;;;25.90
20103;BMP180;10210;52.284;9.892;2022-08-19T08:27:46;100372.00;;;26.00
20103;BMP180;10210;52.284;9.892;2022-08-19T08:30:23;100368.00;;;26.20
20103;BMP180;10210;52.284;9.892;2022-08-19T08:32:51;100368.00;;;26.40
20103;BMP180;10210;52.284;9.892;2022-08-19T08:35:22;100373.00;;;26.60
20103;BMP180;10210;52.284;9.892;2022-08-19T08:37:53;100372.00;;;26.70
20103;BMP180;10210;52.284;9.892;2022-08-19T08:43:33;100375.00;;;27.10
20103;BMP180;10210;52.284;9.892;2022-08-19T08:46:06;100381.00;;;27.50
20103;BMP180;10210;52.284;9.892;2022-08-19T08:48:56;100378.00;;;27.90
20103;BMP180;10210;52.284;9.892;2022-08-19T08:51:51;100385.00;;;28.10
20103;BMP180;10210;52.284;9.892;2022-08-19T08:54:24;100390.00;;;28.30
20103;BMP180;10210;52.284;9.892;2022-08-19T08:56:53;100388.00;;;28.40
20103;BMP180;10210;52.284;9.892;2022-08-19T08:59:28;100384.00;;;28.50
20103;BMP180;10210;52.284;9.892;2022-08-19T09:01:58;100384.00;;;28.70
20103;BMP180;10210;52.284;9.892;2022-08-19T09:04:24;100388.00;;;28.80
20103;BMP180;10210;52.284;9.892;2022-08-19T09:09:51;100381.00;;;28.80
20103;BMP180;10210;52.284;9.892;2022-08-19T09:13:06;100375.00;;;28.70
20103;BMP180;10210;52.284;9.892;2022-08-19T09:15:47;100380.00;;;28.80
20103;BMP180;10210;52.284;9.892;2022-08-19T09:18:14;100381.00;;;28.90
20103;BMP180;10210;52.284;9.892;2022-08-19T09:20:42;100376.00;;;29.00
20103;BMP180;10210;52.284;9.892;2022-08-19T09:23:08;100383.00;;;29.00
20103;BMP180;10210;52.284;9.892;2022-08-19T09:25:34;100379.00;;;29.10
20103;BMP180;10210;52.284;9.892;2022-08-19T09:28:00;100381.00;;;29.10
20103;BMP180;10210;52.284;9.892;2022-08-19T09:30:39;100376.00;;;29.20
20103;BMP180;10210;52.284;9.892;2022-08-19T09:33:05;100388.00;;;29.30
20103;BMP180;10210;52.284;9.892;2022-08-19T09:35:34;100383.00;;;29.40
20103;BMP180;10210;52.284;9.892;2022-08-19T09:38:01;100383.00;;;29.50
20103;BMP180;10210;52.284;9.892;2022-08-19T09:40:29;100381.00;;;29.50
20103;BMP180;10210;52.284;9.892;2022-08-19T09:42:55;100380.00;;;29.50
20103;BMP180;10210;52.284;9.892;2022-08-19T09:45:22;100385.00;;;29.50
20103;BMP180;10210;52.284;9.892;2022-08-19T09:47:51;100391.00;;;29.60
20103;BMP180;10210;52.284;9.892;2022-08-19T09:50:18;100394.00;;;29.70
20103;BMP180;10210;52.284;9.892;2022-08-19T09:52:45;100391.00;;;29.80
20103;BMP180;10210;52.284;9.892;2022-08-19T09:55:11;100380.00;;;29.90
20103;BMP180;10210;52.284;9.892;2022-08-19T09:57:39;100380.00;;;30.00
20103;BMP180;10210;52.284;9.892;2022-08-19T10:00:08;100383.00;;;30.10
20103;BMP180;10210;52.284;9.892;2022-08-19T10:02:38;100385.00;;;30.20
20103;BMP180;10210;52.284;9.892;2022-08-19T10:05:07;100383.00;;;30.40
20103;BMP180;10210;52.284;9.892;2022-08-19T10:07:52;100390.00;;;30.40
20103;BMP180;10210;52.284;9.892;2022-08-19T10:10:18;100380.00;;;30.50
20103;BMP180;10210;52.284;9.892;2022-08-19T10:12:46;100383.00;;;30.60
20103;BMP180;10210;52.284;9.892;2022-08-19T10:15:13;100378.00;;;30.60
20103;BMP180;10210;52.284;9.892;2022-08-19T10:17:39;100374.00;;;30.70
20103;BMP180;10210;52.284;9.892;2022-08-19T10:20:05;100367.00;;;30.70
20103;BMP180;10210;52.284;9.892;2022-08-19T10:22:31;100378.00;;;30.70
20103;BMP180;10210;52.284;9.892;2022-08-19T10:24:57;100375.00;;;30.70
20103;BMP180;10210;52.284;9.892;2022-08-19T10:27:25;100370.00;;;30.70
20103;BMP180;10210;52.284;9.892;2022-08-19T10:29:50;100372.00;;;30.70
20103;BMP180;10210;52.284;9.892;2022-08-19T10:32:16;100356.00;;;30.70
20103;BMP180;10210;52.284;9.892;2022-08-19T10:34:42;100351.00;;;30.70
20103;BMP180;10210;52.284;9.892;2022-08-19T10:37:09;100353.00;;;30.70
20103;BMP180;10210;52.284;9.892;2022-08-19T10:39:36;100348.00;;;30.70
20103;BMP180;10210;52.284;9.892;2022-08-19T10:42:08;100341.00;;;30.70
20103;BMP180;10210;52.284;9.892;2022-08-19T10:44:39;100333.00;;;30.80
20103;BMP180;10210;52.284;9.892;2022-08-19T10:47:05;100342.00;;;30.80
20103;BMP180;10210;52.284;9.892;2022-08-19T10:49:31;100346.00;;;30.70
20103;BMP180;10210;52.284;9.892;2022-08-19T10:51:57;100344.00;;;30.70
20103;BMP180;10210;52.284;9.892;2022-08-19T10:54:43;100337.00;;;30.70
20103;BMP180;10210;52.284;9.892;2022-08-19T10:57:31;100338.00;;;30.60
20103;BMP180;10210;52.284;9.892;2022-08-19T10:59:57;100333.00;;;30.60
20103;BMP180;10210;52.284;9.892;2022-08-19T11:02:23;100331.00;;;30.60
20103;BMP180;10210;52.284;9.892;2022-08-19T11:04:49;100336.00;;;30.60
20103;BMP180;10210;52.284;9.892;2022-08-19T11:07:17;100331.00;;;30.60
20103;BMP180;10210;52.284;9.892;2022-08-19T11:09:43;100325.00;;;30.60
20103;BMP180;10210;52.284;9.892;2022-08-19T11:12:10;100315.00;;;30.60
20103;BMP180;10210;52.284;9.892;2022-08-19T11:14:38;100308.00;;;30.60
20103;BMP180;10210;52.284;9.892;2022-08-19T11:17:05;100315.00;;;30.70
20103;BMP180;10210;52.284;9.892;2022-08-19T11:19:31;100303.00;;;30.70
20103;BMP180;10210;52.284;9.892;2022-08-19T11:21:58;100308.00;;;30.70
20103;BMP180;10210;52.284;9.892;2022-08-19T11:24:29;100306.00;;;30.70
20103;BMP180;10210;52.284;9.892;2022-08-19T11:27:07;100302.00;;;30.70
20103;BMP180;10210;52.284;9.892;2022-08-19T11:29:35;100296.00;;;30.70
20103;BMP180;10210;52.284;9.892;2022-08-19T11:32:09;100301.00;;;30.70
20103;BMP180;10210;52.284;9.892;2022-08-19T11:34:36;100300.00;;;30.80
20103;BMP180;10210;52.284;9.892;2022-08-19T11:37:03;100301.00;;;30.90
20103;BMP180;10210;52.284;9.892;2022-08-19T11:39:31;100301.00;;;30.90
20103;BMP180;10210;52.284;9.892;2022-08-19T11:41:59;100303.00;;;30.90
20103;BMP180;10210;52.284;9.892;2022-08-19T11:44:25;100303.00;;;31.00
20103;BMP180;10210;52.284;9.892;2022-08-19T11:46:51;100304.00;;;31.00
20103;BMP180;10210;52.284;9.892;2022-08-19T11:49:19;100297.00;;;31.10
20103;BMP180;10210;52.284;9.892;2022-08-19T11:51:47;100300.00;;;31.10
20103;BMP180;10210;52.284;9.892;2022-08-19T11:54:17;100296.00;;;31.20
20103;BMP180;10210;52.284;9.892;2022-08-19T11:56:44;100296.00;;;31.20
20103;BMP180;10210;52.284;9.892;2022-08-19T11:59:11;100292.00;;;31.20
20103;BMP180;10210;52.284;9.892;2022-08-19T12:01:37;100283.00;;;31.30
20103;BMP180;10210;52.284;9.892;2022-08-19T12:04:03;100286.00;;;31.30
20103;BMP180;10210;52.284;9.892;2022-08-19T12:06:33;100277.00;;;31.30
20103;BMP180;10210;52.284;9.892;2022-08-19T12:09:04;100271.00;;;31.40
20103;BMP180;10210;52.284;9.892;2022-08-19T12:11:31;100278.00;;;31.40
20103;BMP180;10210;52.284;9.892;2022-08-19T12:13:57;100286.00;;;31.40
20103;BMP180;10210;52.284;9.892;2022-08-19T12:16:26;100289.00;;;31.50
20103;BMP180;10210;52.284;9.892;2022-08-19T12:18:54;100291.00;;;31.50
20103;BMP180;10210;52.284;9.892;2022-08-19T12:21:25;100291.00;;;31.60
20103;BMP180;10210;52.284;9.892;2022-08-19T12:23:56;100288.00;;;31.60
20103;BMP180;10210;52.284;9.892;2022-08-19T12:26:23;100288.00;;;31.70
20103;BMP180;10210;52.284;9.892;2022-08-19T12:28:49;100286.00;;;31.70
20103;BMP180;10210;52.284;9.892;2022-08-19T12:31:16;100280.00;;;31.70
20103;BMP180;10210;52.284;9.892;2022-08-19T12:33:42;100282.00;;;31.80
20103;BMP180;10210;52.284;9.892;2022-08-19T12:36:12;100284.00;;;31.90
20103;BMP180;10210;52.284;9.892;2022-08-19T12:38:41;100288.00;;;31.90
20103;BMP180;10210;52.284;9.892;2022-08-19T12:41:14;100293.00;;;32.00
20103;BMP180;10210;52.284;9.892;2022-08-19T12:43:40;100293.00;;;32.00
20103;BMP180;10210;52.284;9.892;2022-08-19T12:46:08;100291.00;;;32.10
20103;BMP180;10210;52.284;9.892;2022-08-19T12:48:34;100297.00;;;32.20
20103;BMP180;10210;52.284;9.892;2022-08-19T12:51:06;100287.00;;;32.20
20103;BMP180;10210;52.284;9.892;2022-08-19T12:53:32;100284.00;;;32.30
20103;BMP180;10210;52.284;9.892;2022-08-19T12:55:58;100278.00;;;32.40
20103;BMP180;10210;52.284;9.892;2022-08-19T12:58:27;100281.00;;;32.40
20103;BMP180;10210;52.284;9.892;2022-08-19T13:00:55;100279.00;;;32.50
20103;BMP180;10210;52.284;9.892;2022-08-19T13:03:21;100282.00;;;32.50
20103;BMP180;10210;52.284;9.892;2022-08-19T13:05:56;100272.00;;;32.50
20103;BMP180;10210;52.284;9.892;2022-08-19T13:08:23;100271.00;;;32.60
20103;BMP180;10210;52.284;9.892;2022-08-19T13:10:49;100277.00;;;32.60
20103;BMP180;10210;52.284;9.892;2022-08-19T13:13:15;100276.00;;;32.70
20103;BMP180;10210;52.284;9.892;2022-08-19T13:15:42;100276.00;;;32.70
20103;BMP180;10210;52.284;9.892;2022-08-19T13:18:11;100268.00;;;32.70
20103;BMP180;10210;52.284;9.892;2022-08-19T13:20:39;100279.00;;;32.70
20103;BMP180;10210;52.284;9.892;2022-08-19T13:23:09;100277.00;;;32.80
20103;BMP180;10210;52.284;9.892;2022-08-19T13:25:35;100283.00;;;32.80
20103;BMP180;10210;52.284;9.892;2022-08-19T13:28:03;100270.00;;;32.80
20103;BMP180;10210;52.284;9.892;2022-08-19T13:30:30;100280.00;;;32.90
20103;BMP180;10210;52.284;9.892;2022-08-19T13:33:31;100279.00;;;32.90
20103;BMP180;10210;52.284;9.892;2022-08-19T13:35:59;100283.00;;;32.90
20103;BMP180;10210;52.284;9.892;2022-08-19T13:38:28;100281.00;;;32.90
20103;BMP180;10210;52.284;9.892;2022-08-19T13:40:54;100276.00;;;33.00
20103;BMP180;10210;52.284;9.892;2022-08-19T13:43:26;100280.00;;;33.00
20103;BMP180;10210;52.284;9.892;2022-08-19T13:45:54;100282.00;;;33.00
20103;BMP180;10210;52.284;9.892;2022-08-19T13:48:25;100280.00;;;33.00
20103;BMP180;10210;52.284;9.892;2022-08-19T13:50:55;100274.00;;;33.10
20103;BMP180;10210;52.284;9.892;2022-08-19T13:53:21;100269.00;;;33.20
20103;BMP180;10210;52.284;9.892;2022-08-19T13:55:47;100275.00;;;33.20
20103;BMP180;10210;52.284;9.892;2022-08-19T13:58:15;100265.00;;;33.30
20103;BMP180;10210;52.284;9.892;2022-08-19T14:00:44;100278.00;;;33.30
20103;BMP180;10210;52.284;9.892;2022-08-19T14:03:11;100269.00;;;33.40
20103;BMP180;10210;52.284;9.892;2022-08-19T14:05:38;100264.00;;;33.50
20103;BMP180;10210;52.284;9.892;2022-08-19T14:08:05;100281.00;;;33.50
20103;BMP180;10210;52.284;9.892;2022-08-19T14:10:31;100272.00;;;33.50
20103;BMP180;10210;52.284;9.892;2022-08-19T14:13:01;100278.00;;;33.50
20103;BMP180;10210;52.284;9.892;2022-08-19T14:15:27;100274.00;;;33.60